Time;durP1;ratioP1;P1;durP2;ratioP2;P2;SDS_P1;SDS_P2;PMS_P1;PMS_P2;Temp;Humidity;BMP_temperature;BMP_pressure;BME280_temperature;BME280_humidity;BME280_pressure;Samples;Min_cycle;Max_cycle;Signal;HPM_P1;HPM_P2
2021/08/26 00:00:28;;;;;;;;;;;25.10;59.30;;;;;;4992966;28;20016;-63
2021/08/26 00:05:48;;;;;;;;;;;25.10;59.30;;;;;;4991932;28;20346;-63
2021/08/26 00:08:16;;;;;;;;;;;25.10;59.30;;;;;;4991870;28;19972;-64
2021/08/26 00:10:44;;;;;;;;;;;25.10;59.30;;;;;;4993006;28;19926;-63
2021/08/26 00:13:11;;;;;;;;;;;25.10;59.40;;;;;;4991381;28;19969;-63
2021/08/26 00:15:43;;;;;;;;;;;25.10;59.30;;;;;;4991486;28;19947;-64
2021/08/26 00:18:10;;;;;;;;;;;25.10;59.30;;;;;;4992596;28;19952;-64
2021/08/26 00:20:37;;;;;;;;;;;25.10;59.30;;;;;;4991104;28;20009;-63
2021/08/26 00:23:04;;;;;;;;;;;25.10;59.20;;;;;;4992263;28;20293;-64
2021/08/26 00:25:31;;;;;;;;;;;25.10;59.20;;;;;;4991217;28;19926;-63
2021/08/26 00:27:59;;;;;;;;;;;25.10;59.30;;;;;;4992209;28;19926;-63
2021/08/26 00:30:25;;;;;;;;;;;25.10;59.30;;;;;;4992151;28;19969;-63
2021/08/26 00:32:52;;;;;;;;;;;25.10;59.20;;;;;;4991044;28;19939;-63
2021/08/26 00:35:20;;;;;;;;;;;25.10;59.20;;;;;;4991319;28;19926;-63
2021/08/26 00:37:47;;;;;;;;;;;25.10;59.20;;;;;;4991137;28;20013;-63
2021/08/26 00:40:14;;;;;;;;;;;25.10;59.20;;;;;;4975105;28;19976;-65
2021/08/26 00:42:41;;;;;;;;;;;25.10;59.20;;;;;;4991914;28;20305;-64
2021/08/26 00:45:08;;;;;;;;;;;25.10;59.20;;;;;;4991365;28;20365;-63
2021/08/26 00:47:36;;;;;;;;;;;25.10;59.30;;;;;;4991132;28;20036;-63
2021/08/26 00:50:03;;;;;;;;;;;25.00;59.20;;;;;;4974602;28;20017;-63
2021/08/26 00:52:30;;;;;;;;;;;25.10;59.20;;;;;;4990989;28;20021;-63
2021/08/26 00:54:57;;;;;;;;;;;25.10;59.20;;;;;;4990799;28;19933;-63
2021/08/26 00:57:24;;;;;;;;;;;25.10;59.20;;;;;;4991669;28;19925;-63
2021/08/26 00:59:55;;;;;;;;;;;25.10;59.20;;;;;;4991914;28;19948;-63
2021/08/26 01:02:28;;;;;;;;;;;25.10;59.80;;;;;;4992112;28;20012;-63
2021/08/26 01:05:05;;;;;;;;;;;25.10;59.20;;;;;;4975650;28;19979;-63
2021/08/26 01:07:44;;;;;;;;;;;25.10;59.20;;;;;;4975028;28;20016;-64
2021/08/26 01:10:16;;;;;;;;;;;25.10;59.20;;;;;;4990833;28;20013;-63
2021/08/26 01:12:44;;;;;;;;;;;25.10;59.20;;;;;;4990448;28;20017;-63
2021/08/26 01:15:11;;;;;;;;;;;25.10;59.20;;;;;;4973452;28;19932;-63
2021/08/26 01:17:38;;;;;;;;;;;25.10;59.20;;;;;;4991054;28;19968;-63
2021/08/26 01:20:06;;;;;;;;;;;25.10;59.20;;;;;;4990656;28;19975;-63
2021/08/26 01:22:33;;;;;;;;;;;25.00;59.20;;;;;;4991044;28;19930;-63
2021/08/26 01:25:05;;;;;;;;;;;25.00;59.20;;;;;;4991527;28;19969;-63
2021/08/26 01:27:33;;;;;;;;;;;25.00;59.20;;;;;;4991514;28;19926;-62
2021/08/26 01:30:01;;;;;;;;;;;25.10;59.20;;;;;;4990605;28;20003;-63
2021/08/26 01:32:29;;;;;;;;;;;25.00;59.20;;;;;;4991332;28;19964;-63
2021/08/26 01:34:56;;;;;;;;;;;25.00;59.20;;;;;;4990996;28;19930;-63
2021/08/26 01:37:24;;;;;;;;;;;25.00;59.20;;;;;;4990029;28;19980;-62
2021/08/26 01:39:51;;;;;;;;;;;25.10;59.20;;;;;;4991124;28;19953;-62
2021/08/26 01:42:20;;;;;;;;;;;25.10;59.30;;;;;;4991433;28;20010;-63
2021/08/26 01:44:47;;;;;;;;;;;25.10;59.30;;;;;;4991272;28;20028;-63
2021/08/26 01:47:18;;;;;;;;;;;25.10;59.20;;;;;;4991331;28;19975;-64
2021/08/26 01:49:46;;;;;;;;;;;25.10;59.30;;;;;;4973034;28;19961;-62
2021/08/26 01:52:17;;;;;;;;;;;25.10;59.30;;;;;;4991011;28;19961;-64
2021/08/26 01:54:49;;;;;;;;;;;25.00;59.20;;;;;;4989563;28;19932;-63
2021/08/26 01:57:16;;;;;;;;;;;25.10;59.20;;;;;;4989293;28;20339;-63
2021/08/26 01:59:43;;;;;;;;;;;25.10;59.20;;;;;;4991114;28;19926;-62
2021/08/26 02:02:10;;;;;;;;;;;25.10;59.20;;;;;;4991079;28;19983;-63
2021/08/26 02:04:37;;;;;;;;;;;25.10;59.20;;;;;;4972659;28;19948;-63
2021/08/26 02:07:04;;;;;;;;;;;25.00;59.10;;;;;;4990727;28;19973;-63
2021/08/26 02:09:31;;;;;;;;;;;25.10;59.20;;;;;;4989832;28;19926;-63
2021/08/26 02:11:58;;;;;;;;;;;25.10;59.20;;;;;;4973311;28;20429;-63
2021/08/26 02:14:25;;;;;;;;;;;25.10;59.20;;;;;;4989947;28;20008;-63
2021/08/26 02:16:52;;;;;;;;;;;25.00;59.10;;;;;;4972609;28;19979;-63
2021/08/26 02:19:19;;;;;;;;;;;25.00;59.10;;;;;;4989853;28;19969;-63
2021/08/26 02:21:46;;;;;;;;;;;25.10;59.20;;;;;;4990226;28;19970;-63
2021/08/26 02:24:13;;;;;;;;;;;25.00;59.10;;;;;;4990822;28;20337;-64
2021/08/26 02:26:40;;;;;;;;;;;25.10;59.20;;;;;;4990521;28;19934;-63
2021/08/26 02:29:07;;;;;;;;;;;25.00;59.10;;;;;;4989878;28;19969;-63
2021/08/26 02:31:34;;;;;;;;;;;25.10;59.20;;;;;;4989354;28;19961;-63
2021/08/26 02:34:01;;;;;;;;;;;25.10;59.20;;;;;;4989287;28;19937;-63
2021/08/26 02:36:28;;;;;;;;;;;25.00;59.10;;;;;;4990670;28;19926;-63
2021/08/26 02:38:55;;;;;;;;;;;25.00;59.10;;;;;;4973354;28;19948;-62
2021/08/26 02:41:22;;;;;;;;;;;25.10;59.20;;;;;;4989182;28;19965;-63
2021/08/26 02:43:49;;;;;;;;;;;25.10;59.20;;;;;;4989466;28;19926;-63
2021/08/26 02:46:16;;;;;;;;;;;25.10;59.20;;;;;;4990518;28;20048;-63
2021/08/26 02:48:43;;;;;;;;;;;25.00;59.10;;;;;;4990221;28;19926;-63
2021/08/26 02:51:10;;;;;;;;;;;25.10;59.20;;;;;;4990358;28;19975;-62
2021/08/26 02:53:36;;;;;;;;;;;25.00;59.10;;;;;;4990096;28;19965;-63
2021/08/26 02:56:04;;;;;;;;;;;25.00;59.10;;;;;;4988628;28;20413;-63
2021/08/26 02:58:31;;;;;;;;;;;25.10;59.20;;;;;;4989903;28;20017;-63
2021/08/26 03:00:57;;;;;;;;;;;25.10;59.20;;;;;;4990385;28;19994;-63
2021/08/26 03:03:25;;;;;;;;;;;25.00;59.10;;;;;;4988791;28;19929;-63
2021/08/26 03:05:52;;;;;;;;;;;25.00;59.10;;;;;;4990261;28;19929;-63
2021/08/26 03:08:19;;;;;;;;;;;25.10;59.20;;;;;;4990122;28;20366;-63
2021/08/26 03:10:46;;;;;;;;;;;25.10;59.20;;;;;;4993711;28;19973;-63
2021/08/26 03:13:13;;;;;;;;;;;25.10;59.20;;;;;;4994106;28;19985;-63
2021/08/26 03:15:40;;;;;;;;;;;25.00;59.10;;;;;;4993140;28;20368;-63
2021/08/26 03:18:07;;;;;;;;;;;25.00;59.10;;;;;;4993405;28;19936;-63
2021/08/26 03:20:34;;;;;;;;;;;25.00;59.10;;;;;;4979360;28;20377;-64
2021/08/26 03:23:01;;;;;;;;;;;25.00;59.10;;;;;;4992390;28;19932;-63
2021/08/26 03:25:28;;;;;;;;;;;25.00;59.10;;;;;;4992352;28;20344;-63
2021/08/26 03:27:55;;;;;;;;;;;25.10;59.10;;;;;;4993020;28;19926;-63
2021/08/26 03:30:22;;;;;;;;;;;25.00;59.10;;;;;;4974903;28;20427;-63
2021/08/26 03:32:49;;;;;;;;;;;25.00;59.10;;;;;;4993190;28;19949;-63
2021/08/26 03:35:16;;;;;;;;;;;25.00;59.10;;;;;;4992151;28;20215;-63
2021/08/26 03:37:43;;;;;;;;;;;25.00;59.10;;;;;;4993268;28;20033;-64
2021/08/26 03:40:10;;;;;;;;;;;25.00;59.10;;;;;;4993100;28;19925;-64
2021/08/26 03:42:37;;;;;;;;;;;25.00;59.10;;;;;;4993267;28;19957;-63
2021/08/26 03:45:05;;;;;;;;;;;25.10;59.20;;;;;;4992811;28;19933;-63
2021/08/26 03:47:32;;;;;;;;;;;25.00;59.10;;;;;;4992586;28;19930;-63
2021/08/26 03:49:59;;;;;;;;;;;25.00;59.10;;;;;;4992809;28;19926;-63
2021/08/26 03:52:26;;;;;;;;;;;25.00;59.10;;;;;;4993084;28;19926;-64
2021/08/26 03:54:53;;;;;;;;;;;25.00;59.10;;;;;;4991679;28;20284;-63
2021/08/26 03:57:20;;;;;;;;;;;25.00;59.10;;;;;;4991375;28;20017;-63
2021/08/26 03:59:46;;;;;;;;;;;25.00;59.10;;;;;;4991585;28;19961;-63
2021/08/26 04:02:13;;;;;;;;;;;25.00;59.00;;;;;;4992699;28;20008;-63
2021/08/26 04:04:41;;;;;;;;;;;25.00;59.00;;;;;;4992698;28;19926;-64
2021/08/26 04:07:07;;;;;;;;;;;25.00;59.10;;;;;;4991606;28;19925;-63
2021/08/26 04:09:34;;;;;;;;;;;25.00;59.10;;;;;;4992863;28;19965;-64
2021/08/26 04:12:01;;;;;;;;;;;25.00;59.10;;;;;;4992653;28;19987;-63
2021/08/26 04:14:28;;;;;;;;;;;25.00;59.10;;;;;;4992376;28;19926;-64
2021/08/26 04:16:55;;;;;;;;;;;25.00;59.00;;;;;;4992533;28;20382;-63
2021/08/26 04:19:22;;;;;;;;;;;25.00;59.00;;;;;;4991329;28;19965;-63
2021/08/26 04:21:49;;;;;;;;;;;25.00;59.00;;;;;;4991397;28;20032;-63
2021/08/26 04:24:16;;;;;;;;;;;25.00;59.10;;;;;;4992604;28;19988;-63
2021/08/26 04:26:43;;;;;;;;;;;25.00;59.10;;;;;;4991267;28;19925;-63
2021/08/26 04:29:10;;;;;;;;;;;25.00;59.00;;;;;;4992510;28;19974;-65
2021/08/26 04:31:37;;;;;;;;;;;25.00;59.00;;;;;;4991443;28;19926;-65
2021/08/26 04:34:04;;;;;;;;;;;25.00;59.10;;;;;;4991110;28;20016;-65
2021/08/26 04:36:31;;;;;;;;;;;25.00;59.10;;;;;;4992404;28;19925;-65
2021/08/26 04:38:58;;;;;;;;;;;25.00;59.10;;;;;;4990989;28;20374;-65
2021/08/26 04:41:25;;;;;;;;;;;25.00;59.10;;;;;;4992275;28;19926;-65
2021/08/26 04:43:52;;;;;;;;;;;25.00;59.10;;;;;;4992212;28;19930;-65
2021/08/26 04:46:19;;;;;;;;;;;25.00;59.10;;;;;;4992188;28;19926;-65
2021/08/26 04:48:46;;;;;;;;;;;25.00;59.10;;;;;;4991102;28;20004;-63
2021/08/26 04:51:12;;;;;;;;;;;25.00;59.00;;;;;;4991064;28;19948;-63
2021/08/26 04:53:39;;;;;;;;;;;25.00;59.00;;;;;;4991124;28;19927;-63
2021/08/26 04:56:06;;;;;;;;;;;25.10;59.00;;;;;;4991357;28;19932;-63
2021/08/26 04:58:33;;;;;;;;;;;25.10;59.00;;;;;;4991565;28;19972;-63
2021/08/26 05:01:00;;;;;;;;;;;25.10;59.00;;;;;;4973479;28;19934;-63
2021/08/26 05:03:27;;;;;;;;;;;25.10;59.00;;;;;;4974825;28;19930;-63
2021/08/26 05:05:54;;;;;;;;;;;25.00;58.90;;;;;;4992108;28;20012;-63
2021/08/26 05:08:21;;;;;;;;;;;25.10;59.00;;;;;;4990736;28;19926;-63
2021/08/26 05:10:48;;;;;;;;;;;25.10;59.00;;;;;;4991690;28;19965;-63
2021/08/26 05:13:15;;;;;;;;;;;25.10;59.00;;;;;;4990411;28;19926;-64
2021/08/26 05:15:41;;;;;;;;;;;25.10;58.90;;;;;;4991487;28;19936;-63
2021/08/26 05:18:08;;;;;;;;;;;25.10;58.90;;;;;;4990358;28;20043;-63
2021/08/26 05:20:35;;;;;;;;;;;25.10;58.80;;;;;;4990629;28;19934;-63
2021/08/26 05:23:02;;;;;;;;;;;25.20;58.90;;;;;;4991656;28;19926;-63
2021/08/26 05:25:29;;;;;;;;;;;25.10;58.80;;;;;;4990329;28;19930;-63
2021/08/26 05:27:56;;;;;;;;;;;25.10;58.70;;;;;;4990430;28;19926;-63
2021/08/26 05:30:23;;;;;;;;;;;25.20;58.70;;;;;;4991220;28;19925;-63
2021/08/26 05:32:50;;;;;;;;;;;25.20;58.70;;;;;;4989954;28;20328;-64
2021/08/26 05:35:17;;;;;;;;;;;25.20;58.70;;;;;;4991363;28;20363;-64
2021/08/26 05:37:44;;;;;;;;;;;25.20;58.70;;;;;;4990124;28;19932;-63
2021/08/26 05:40:11;;;;;;;;;;;25.20;58.70;;;;;;4974090;28;19925;-63
2021/08/26 05:42:38;;;;;;;;;;;25.10;58.60;;;;;;4991091;28;19926;-63
2021/08/26 05:45:05;;;;;;;;;;;25.20;58.70;;;;;;4991282;28;19995;-63
2021/08/26 05:47:33;;;;;;;;;;;25.20;58.70;;;;;;4989865;28;19936;-63
2021/08/26 05:50:00;;;;;;;;;;;25.20;58.70;;;;;;4990914;28;19969;-63
2021/08/26 05:52:27;;;;;;;;;;;25.10;58.60;;;;;;4990819;28;19994;-63
2021/08/26 05:54:53;;;;;;;;;;;25.20;58.70;;;;;;4990619;28;20854;-63
2021/08/26 05:57:20;;;;;;;;;;;25.20;58.70;;;;;;4990627;28;19999;-63
2021/08/26 05:59:47;;;;;;;;;;;25.20;58.70;;;;;;4990966;28;19926;-63
2021/08/26 06:02:14;;;;;;;;;;;25.20;58.70;;;;;;4989903;28;19964;-63
2021/08/26 06:04:41;;;;;;;;;;;25.20;58.60;;;;;;4990115;28;19926;-63
2021/08/26 06:07:08;;;;;;;;;;;25.20;58.70;;;;;;4991012;28;20004;-63
2021/08/26 06:09:35;;;;;;;;;;;25.20;58.60;;;;;;4990486;28;19953;-63
2021/08/26 06:12:02;;;;;;;;;;;25.20;58.60;;;;;;4989936;28;19933;-63
2021/08/26 06:14:29;;;;;;;;;;;25.20;58.60;;;;;;4989836;28;20266;-63
2021/08/26 06:16:56;;;;;;;;;;;25.20;58.50;;;;;;4973371;28;19965;-63
2021/08/26 06:19:23;;;;;;;;;;;25.20;58.50;;;;;;4990877;28;19969;-63
2021/08/26 06:21:50;;;;;;;;;;;25.20;58.50;;;;;;4989495;28;19926;-64
2021/08/26 06:24:17;;;;;;;;;;;25.20;58.60;;;;;;4990425;28;19933;-63
2021/08/26 06:26:44;;;;;;;;;;;25.20;58.50;;;;;;4973408;28;20021;-63
2021/08/26 06:29:11;;;;;;;;;;;25.20;58.50;;;;;;4990764;28;20343;-63
2021/08/26 06:31:39;;;;;;;;;;;25.30;58.50;;;;;;4989548;28;19926;-63
2021/08/26 06:34:06;;;;;;;;;;;25.30;58.50;;;;;;4990516;28;19925;-63
2021/08/26 06:36:33;;;;;;;;;;;25.30;58.50;;;;;;4989121;28;19987;-63
2021/08/26 06:39:00;;;;;;;;;;;25.30;58.40;;;;;;4990116;28;20020;-63
2021/08/26 06:41:26;;;;;;;;;;;25.30;58.40;;;;;;4989137;28;20008;-63
2021/08/26 06:43:53;;;;;;;;;;;25.30;58.40;;;;;;4990597;28;19958;-63
2021/08/26 06:46:20;;;;;;;;;;;25.30;58.40;;;;;;4993920;28;19926;-64
2021/08/26 06:48:47;;;;;;;;;;;25.30;58.30;;;;;;4976662;28;19973;-63
2021/08/26 06:51:14;;;;;;;;;;;25.30;58.20;;;;;;4976384;28;19969;-64
2021/08/26 06:53:41;;;;;;;;;;;25.40;58.20;;;;;;4993740;28;19980;-63
2021/08/26 06:56:08;;;;;;;;;;;25.40;58.00;;;;;;4993451;28;19926;-63
2021/08/26 06:58:35;;;;;;;;;;;25.40;58.00;;;;;;4993981;28;20014;-63
2021/08/26 07:01:02;;;;;;;;;;;25.50;58.00;;;;;;4992830;28;19932;-64
2021/08/26 07:03:29;;;;;;;;;;;25.50;57.90;;;;;;4993680;28;20298;-63
2021/08/26 07:05:56;;;;;;;;;;;25.50;57.90;;;;;;4979497;28;19926;-63
2021/08/26 07:08:23;;;;;;;;;;;25.50;57.80;;;;;;4993704;28;19926;-63
2021/08/26 07:10:51;;;;;;;;;;;25.50;57.70;;;;;;4992268;28;19926;-63
2021/08/26 07:13:17;;;;;;;;;;;25.60;57.70;;;;;;4993350;28;19932;-64
2021/08/26 07:15:44;;;;;;;;;;;25.60;57.70;;;;;;4993123;28;19932;-63
2021/08/26 07:18:11;;;;;;;;;;;25.60;57.60;;;;;;4993737;28;19971;-63
2021/08/26 07:20:38;;;;;;;;;;;25.50;57.60;;;;;;4993296;28;19965;-63
2021/08/26 07:23:05;;;;;;;;;;;25.60;57.70;;;;;;4975118;28;20009;-63
2021/08/26 07:25:32;;;;;;;;;;;25.50;57.60;;;;;;4992346;28;19930;-62
2021/08/26 07:27:59;;;;;;;;;;;25.60;57.70;;;;;;4991886;28;19926;-63
2021/08/26 07:30:27;;;;;;;;;;;25.60;57.60;;;;;;4993058;28;19975;-63
2021/08/26 07:32:53;;;;;;;;;;;25.60;57.70;;;;;;4992012;28;19925;-62
2021/08/26 07:35:20;;;;;;;;;;;25.60;57.60;;;;;;4974915;28;19933;-63
2021/08/26 07:37:47;;;;;;;;;;;25.60;57.60;;;;;;4992956;28;19980;-62
2021/08/26 07:40:15;;;;;;;;;;;25.60;57.60;;;;;;4992133;28;20285;-63
2021/08/26 07:42:42;;;;;;;;;;;25.60;57.60;;;;;;4991923;28;19988;-63
2021/08/26 07:45:09;;;;;;;;;;;25.60;57.50;;;;;;4993005;28;19926;-63
2021/08/26 07:47:36;;;;;;;;;;;25.70;57.40;;;;;;4993273;28;19980;-63
2021/08/26 07:50:04;;;;;;;;;;;25.70;57.30;;;;;;4992085;28;19937;-63
2021/08/26 07:52:31;;;;;;;;;;;25.70;57.30;;;;;;4993015;28;20443;-62
2021/08/26 07:54:58;;;;;;;;;;;25.80;57.20;;;;;;4992051;28;19983;-63
2021/08/26 07:57:25;;;;;;;;;;;25.80;57.10;;;;;;4991717;28;19926;-63
2021/08/26 07:59:52;;;;;;;;;;;25.80;57.10;;;;;;4992918;28;20008;-63
2021/08/26 08:02:19;;;;;;;;;;;25.90;57.00;;;;;;4992388;28;19926;-63
2021/08/26 08:04:46;;;;;;;;;;;25.90;56.90;;;;;;4991461;28;19926;-63
2021/08/26 08:07:13;;;;;;;;;;;25.90;56.80;;;;;;4991408;28;20009;-63
2021/08/26 08:09:40;;;;;;;;;;;25.90;56.80;;;;;;4992664;28;20353;-63
2021/08/26 08:12:07;;;;;;;;;;;25.90;56.80;;;;;;4991347;28;20024;-63
2021/08/26 08:14:34;;;;;;;;;;;25.90;56.90;;;;;;4992765;28;20361;-63
2021/08/26 08:17:01;;;;;;;;;;;25.80;56.90;;;;;;4991418;28;19926;-63
2021/08/26 08:19:28;;;;;;;;;;;25.90;56.90;;;;;;4992331;28;19926;-63
2021/08/26 08:21:55;;;;;;;;;;;25.90;56.90;;;;;;4991507;28;19925;-63
2021/08/26 08:24:22;;;;;;;;;;;25.90;56.80;;;;;;4992432;28;19925;-63
2021/08/26 08:26:54;;;;;;;;;;;25.90;56.60;;;;;;4992310;28;19936;-63
2021/08/26 08:29:21;;;;;;;;;;;26.00;56.70;;;;;;4992579;28;20295;-63
2021/08/26 08:31:48;;;;;;;;;;;26.00;56.50;;;;;;4974897;28;19968;-63
2021/08/26 08:34:15;;;;;;;;;;;26.00;56.40;;;;;;4991960;28;19926;-64
2021/08/26 08:36:42;;;;;;;;;;;26.10;56.40;;;;;;4991187;28;20289;-62
2021/08/26 08:39:10;;;;;;;;;;;26.10;56.40;;;;;;4975218;28;20468;-64
2021/08/26 08:41:37;;;;;;;;;;;26.10;56.30;;;;;;4974937;28;19969;-63
2021/08/26 08:44:04;;;;;;;;;;;26.10;56.30;;;;;;4975252;28;20032;-63
2021/08/26 08:46:32;;;;;;;;;;;26.10;56.30;;;;;;4991278;28;19933;-63
2021/08/26 08:49:00;;;;;;;;;;;26.10;56.30;;;;;;4991336;28;19991;-63
2021/08/26 08:51:29;;;;;;;;;;;26.10;56.30;;;;;;4991912;28;20017;-63
2021/08/26 08:53:56;;;;;;;;;;;26.10;56.30;;;;;;4974645;28;19991;-63
2021/08/26 08:56:26;;;;;;;;;;;26.10;56.30;;;;;;4971098;28;20019;-63
2021/08/26 08:58:58;;;;;;;;;;;26.10;56.20;;;;;;4972071;28;20149;-63
2021/08/26 09:01:25;;;;;;;;;;;26.10;56.10;;;;;;4971528;28;19995;-64
2021/08/26 09:03:52;;;;;;;;;;;26.20;56.10;;;;;;4972048;28;19926;-63
2021/08/26 09:06:19;;;;;;;;;;;26.20;56.10;;;;;;4971258;28;19926;-63
2021/08/26 09:09:03;;;;;;;;;;;26.20;56.00;;;;;;4971373;28;19957;-63
2021/08/26 09:11:30;;;;;;;;;;;26.20;56.00;;;;;;4970868;28;19927;-63
2021/08/26 09:14:06;;;;;;;;;;;26.20;55.90;;;;;;4972071;28;19926;-64
2021/08/26 09:16:38;;;;;;;;;;;26.20;55.90;;;;;;4970874;28;19926;-63
2021/08/26 09:19:24;;;;;;;;;;;26.30;55.90;;;;;;4970919;28;19926;-62
2021/08/26 09:21:51;;;;;;;;;;;26.20;55.80;;;;;;4971959;28;19953;-63
2021/08/26 09:24:18;;;;;;;;;;;26.20;55.70;;;;;;4971101;28;20009;-63
2021/08/26 09:26:47;;;;;;;;;;;26.30;55.70;;;;;;4972134;28;20329;-64
2021/08/26 09:29:14;;;;;;;;;;;26.30;55.70;;;;;;4970860;28;19962;-63
2021/08/26 09:31:42;;;;;;;;;;;26.30;55.60;;;;;;4971811;28;19969;-64
2021/08/26 09:34:11;;;;;;;;;;;26.30;55.60;;;;;;4950252;28;20013;-63
2021/08/26 09:36:51;;;;;;;;;;;26.30;55.50;;;;;;4962486;28;19930;-63
2021/08/26 09:39:18;;;;;;;;;;;26.40;55.50;;;;;;4972075;28;20362;-64
2021/08/26 09:41:49;;;;;;;;;;;26.40;55.40;;;;;;4970703;28;20423;-64
2021/08/26 09:44:16;;;;;;;;;;;26.40;55.30;;;;;;4971523;28;19933;-64
2021/08/26 09:46:47;;;;;;;;;;;26.40;55.20;;;;;;4971557;28;19952;-64
2021/08/26 09:49:16;;;;;;;;;;;26.40;55.20;;;;;;4970848;28;19930;-63
2021/08/26 09:51:43;;;;;;;;;;;26.40;55.30;;;;;;4970458;28;19948;-64
2021/08/26 09:54:29;;;;;;;;;;;26.50;55.30;;;;;;4970915;28;20005;-63
2021/08/26 09:56:57;;;;;;;;;;;26.40;55.20;;;;;;4985929;28;20032;-63
2021/08/26 09:59:53;;;;;;;;;;;26.50;55.30;;;;;;4990903;28;20103;-63
2021/08/26 10:02:22;;;;;;;;;;;26.40;55.20;;;;;;4929420;28;19938;-61
2021/08/26 10:04:49;;;;;;;;;;;26.40;55.30;;;;;;4929858;29;19933;-63
2021/08/26 10:07:17;;;;;;;;;;;26.40;55.40;;;;;;4928960;28;19927;-63
2021/08/26 10:09:44;;;;;;;;;;;26.40;55.50;;;;;;4929774;28;19931;-62
2021/08/26 10:12:12;;;;;;;;;;;26.40;55.50;;;;;;4932101;29;19927;-62
2021/08/26 10:14:44;;;;;;;;;;;26.40;55.40;;;;;;4933270;28;19927;-63
2021/08/26 10:17:13;;;;;;;;;;;26.40;55.50;;;;;;4922169;28;20334;-63
2021/08/26 10:19:41;;;;;;;;;;;26.40;55.40;;;;;;4914588;28;19933;-62
2021/08/26 10:22:08;;;;;;;;;;;26.40;55.40;;;;;;4933810;29;20000;-62
2021/08/26 10:24:37;;;;;;;;;;;26.50;55.50;;;;;;4914351;28;19927;-63
2021/08/26 10:27:08;;;;;;;;;;;26.40;55.40;;;;;;4916206;29;19930;-63
2021/08/26 10:29:38;;;;;;;;;;;26.40;55.60;;;;;;4913734;29;19927;-63
2021/08/26 10:32:05;;;;;;;;;;;26.30;55.60;;;;;;4914280;29;19985;-62
2021/08/26 10:34:32;;;;;;;;;;;26.30;55.70;;;;;;4915203;28;20006;-63
2021/08/26 10:36:59;;;;;;;;;;;26.20;55.80;;;;;;4930334;28;19962;-63
2021/08/26 10:39:33;;;;;;;;;;;26.20;56.00;;;;;;4976018;28;19933;-63
2021/08/26 10:42:35;;;;;;;;;;;26.20;56.10;;;;;;4989639;28;20017;-62
2021/08/26 10:45:02;;;;;;;;;;;26.10;56.20;;;;;;5009265;28;19932;-63
2021/08/26 10:47:48;;;;;;;;;;;26.10;56.30;;;;;;4993453;28;20013;-64
2021/08/26 10:50:14;;;;;;;;;;;26.00;56.40;;;;;;5004665;28;19987;-64
2021/08/26 10:52:54;;;;;;;;;;;26.00;56.40;;;;;;5004873;28;19927;-63
2021/08/26 10:55:31;;;;;;;;;;;26.00;56.50;;;;;;5008663;28;19925;-64
2021/08/26 10:58:17;;;;;;;;;;;26.00;56.60;;;;;;4987836;28;19960;-61
2021/08/26 11:00:44;;;;;;;;;;;25.90;56.60;;;;;;4993198;28;19976;-60
2021/08/26 11:03:31;;;;;;;;;;;25.90;56.60;;;;;;4994656;28;19960;-61
2021/08/26 11:06:12;;;;;;;;;;;25.90;56.60;;;;;;5003902;28;19926;-63
2021/08/26 11:08:39;;;;;;;;;;;25.90;56.80;;;;;;5003602;28;20012;-63
2021/08/26 11:11:24;;;;;;;;;;;25.90;56.80;;;;;;5001771;28;20008;-63
2021/08/26 11:14:17;;;;;;;;;;;25.90;56.90;;;;;;4992335;28;19932;-63
2021/08/26 11:16:46;;;;;;;;;;;25.90;56.90;;;;;;5003333;28;19929;-63
2021/08/26 11:19:16;;;;;;;;;;;25.80;56.90;;;;;;4997274;28;19973;-63
2021/08/26 11:21:46;;;;;;;;;;;25.80;57.00;;;;;;4988828;28;19930;-63
2021/08/26 11:24:16;;;;;;;;;;;25.80;57.00;;;;;;4989038;28;19926;-63
2021/08/26 11:26:44;;;;;;;;;;;25.80;57.10;;;;;;4989818;28;19926;-63
2021/08/26 11:29:20;;;;;;;;;;;25.80;57.10;;;;;;4989048;28;20011;-63
2021/08/26 11:31:57;;;;;;;;;;;25.80;57.00;;;;;;4975123;28;19973;-64
2021/08/26 11:34:27;;;;;;;;;;;25.80;57.00;;;;;;4993025;28;20359;-61
2021/08/26 11:36:56;;;;;;;;;;;25.80;56.90;;;;;;4993107;28;20149;-61
2021/08/26 11:39:23;;;;;;;;;;;25.90;57.00;;;;;;4991933;28;19926;-61
2021/08/26 11:41:51;;;;;;;;;;;25.90;56.90;;;;;;4992807;28;19945;-61
2021/08/26 11:44:18;;;;;;;;;;;25.90;56.90;;;;;;4992127;28;19948;-61
2021/08/26 11:46:45;;;;;;;;;;;25.90;56.80;;;;;;4992757;28;20354;-61
2021/08/26 11:49:12;;;;;;;;;;;25.90;56.90;;;;;;4993106;28;20001;-61
2021/08/26 11:51:39;;;;;;;;;;;25.90;56.80;;;;;;4993159;28;20017;-61
2021/08/26 11:54:16;;;;;;;;;;;25.90;56.80;;;;;;4992308;28;19926;-61
2021/08/26 11:56:45;;;;;;;;;;;25.90;56.80;;;;;;5007065;28;19940;-61
2021/08/26 11:59:25;;;;;;;;;;;25.90;56.80;;;;;;4992288;28;19926;-60
2021/08/26 12:02:14;;;;;;;;;;;25.90;56.80;;;;;;4992522;28;20021;-61
2021/08/26 12:04:42;;;;;;;;;;;25.90;56.80;;;;;;4977516;28;20001;-61
2021/08/26 12:07:09;;;;;;;;;;;25.90;56.80;;;;;;4992553;28;19925;-61
2021/08/26 12:09:36;;;;;;;;;;;25.90;56.80;;;;;;4974438;28;19926;-63
2021/08/26 12:12:12;;;;;;;;;;;25.90;56.80;;;;;;4990879;28;19926;-62
2021/08/26 12:14:39;;;;;;;;;;;25.90;56.80;;;;;;4989893;28;19961;-62
2021/08/26 12:17:13;;;;;;;;;;;25.90;56.90;;;;;;4991514;28;20016;-62
2021/08/26 12:19:41;;;;;;;;;;;25.90;56.90;;;;;;4992266;28;19926;-62
2021/08/26 12:22:08;;;;;;;;;;;25.90;56.90;;;;;;4991436;28;19930;-61
2021/08/26 12:24:35;;;;;;;;;;;25.90;56.80;;;;;;4991872;28;20345;-61
2021/08/26 12:27:09;;;;;;;;;;;25.90;56.80;;;;;;4991033;28;19976;-61
2021/08/26 12:29:40;;;;;;;;;;;25.90;56.80;;;;;;4992599;28;19969;-62
2021/08/26 12:32:26;;;;;;;;;;;25.90;56.90;;;;;;4992343;28;19930;-62
2021/08/26 12:34:53;;;;;;;;;;;26.00;56.90;;;;;;4991848;28;19926;-61
2021/08/26 12:37:20;;;;;;;;;;;25.90;56.90;;;;;;4992044;28;19929;-61
2021/08/26 12:39:58;;;;;;;;;;;25.90;56.90;;;;;;4991202;28;19926;-61
2021/08/26 12:42:25;;;;;;;;;;;25.90;57.00;;;;;;4990215;28;19932;-62
2021/08/26 12:44:53;;;;;;;;;;;25.90;57.60;;;;;;4978008;28;19976;-61
2021/08/26 12:47:27;;;;;;;;;;;25.90;57.10;;;;;;4991105;28;19962;-62
2021/08/26 12:49:55;;;;;;;;;;;25.90;57.10;;;;;;4992049;28;19926;-62
2021/08/26 12:52:31;;;;;;;;;;;25.80;57.10;;;;;;4991942;28;20290;-63
2021/08/26 12:54:58;;;;;;;;;;;25.90;57.20;;;;;;4991690;28;20008;-62
2021/08/26 12:57:25;;;;;;;;;;;25.90;57.20;;;;;;4991834;28;19925;-62
2021/08/26 12:59:52;;;;;;;;;;;25.80;57.20;;;;;;4990889;28;20331;-63
2021/08/26 13:02:19;;;;;;;;;;;25.90;57.30;;;;;;4990972;28;19926;-64
2021/08/26 13:05:01;;;;;;;;;;;25.80;57.30;;;;;;4991641;28;19926;-63
2021/08/26 13:07:30;;;;;;;;;;;25.80;57.40;;;;;;4991375;28;20213;-62
2021/08/26 13:10:00;;;;;;;;;;;25.80;57.40;;;;;;4991861;28;20012;-63
2021/08/26 13:12:28;;;;;;;;;;;25.80;57.50;;;;;;4991877;28;19962;-63
2021/08/26 13:14:55;;;;;;;;;;;25.70;57.50;;;;;;4990794;28;19975;-64
2021/08/26 13:17:24;;;;;;;;;;;25.70;57.50;;;;;;4991745;28;19952;-64
2021/08/26 13:19:53;;;;;;;;;;;25.70;57.50;;;;;;4991387;28;19926;-63
2021/08/26 13:22:25;;;;;;;;;;;25.80;57.50;;;;;;4991530;28;19965;-63
2021/08/26 13:24:52;;;;;;;;;;;25.80;57.60;;;;;;4990445;28;20461;-62
2021/08/26 13:27:20;;;;;;;;;;;25.80;57.50;;;;;;4991195;28;19969;-62
2021/08/26 13:29:47;;;;;;;;;;;25.80;57.50;;;;;;4991568;28;19995;-62
2021/08/26 13:32:15;;;;;;;;;;;25.80;57.60;;;;;;4990448;28;19926;-63
2021/08/26 13:34:43;;;;;;;;;;;25.80;57.50;;;;;;4991516;28;19933;-62
2021/08/26 13:37:10;;;;;;;;;;;25.80;57.60;;;;;;4991151;28;19976;-62
2021/08/26 13:39:38;;;;;;;;;;;25.80;57.60;;;;;;4990633;28;20439;-63
2021/08/26 13:42:05;;;;;;;;;;;25.70;57.60;;;;;;4991459;28;19967;-63
2021/08/26 13:44:36;;;;;;;;;;;25.70;57.70;;;;;;4991606;28;19976;-63
2021/08/26 13:47:03;;;;;;;;;;;25.70;57.70;;;;;;4972821;28;19926;-63
2021/08/26 13:49:31;;;;;;;;;;;25.70;57.70;;;;;;4991271;28;19930;-63
2021/08/26 13:51:58;;;;;;;;;;;25.70;57.80;;;;;;4990782;28;20401;-64
2021/08/26 13:54:25;;;;;;;;;;;25.70;57.90;;;;;;4990800;28;19972;-63
2021/08/26 13:56:52;;;;;;;;;;;25.70;57.90;;;;;;4990486;28;19973;-62
2021/08/26 13:59:19;;;;;;;;;;;25.70;57.90;;;;;;4991195;28;19930;-63
2021/08/26 14:01:46;;;;;;;;;;;25.60;58.00;;;;;;4991115;28;19926;-63
2021/08/26 14:04:14;;;;;;;;;;;25.60;58.00;;;;;;4990917;28;19969;-63
2021/08/26 14:06:41;;;;;;;;;;;25.60;58.00;;;;;;4990770;28;19926;-63
2021/08/26 14:09:07;;;;;;;;;;;25.60;58.00;;;;;;4990630;28;19929;-63
2021/08/26 14:11:35;;;;;;;;;;;25.60;57.90;;;;;;4989982;28;19967;-63
2021/08/26 14:14:01;;;;;;;;;;;25.60;58.00;;;;;;4989902;28;20353;-63
2021/08/26 14:16:28;;;;;;;;;;;25.60;58.00;;;;;;4989474;28;19930;-63
2021/08/26 14:18:55;;;;;;;;;;;25.60;58.00;;;;;;4990674;28;19933;-63
2021/08/26 14:21:22;;;;;;;;;;;25.60;58.00;;;;;;4990647;28;20377;-63
2021/08/26 14:23:49;;;;;;;;;;;25.60;58.00;;;;;;4989476;28;20021;-63
2021/08/26 14:26:16;;;;;;;;;;;25.60;58.10;;;;;;4990435;28;19971;-62